sensor_id;sensor_type;location;lat;lon;timestamp;P1;durP1;ratioP1;P2;durP2;ratioP2
10529;SDS011;5313;48.834;9.228;2023-07-08T00:02:07;10.27;;;7.63;;
10529;SDS011;5313;48.834;9.228;2023-07-08T00:04:34;11.43;;;8.93;;
10529;SDS011;5313;48.834;9.228;2023-07-08T00:07:00;14.50;;;8.63;;
10529;SDS011;5313;48.834;9.228;2023-07-08T00:09:25;10.33;;;7.17;;
10529;SDS011;5313;48.834;9.228;2023-07-08T00:11:51;9.30;;;6.43;;
10529;SDS011;5313;48.834;9.228;2023-07-08T00:14:16;9.27;;;6.70;;
10529;SDS011;5313;48.834;9.228;2023-07-08T00:16:42;10.20;;;6.90;;
10529;SDS011;5313;48.834;9.228;2023-07-08T00:19:08;10.87;;;7.23;;
10529;SDS011;5313;48.834;9.228;2023-07-08T00:21:35;14.87;;;8.13;;
10529;SDS011;5313;48.834;9.228;2023-07-08T00:24:01;12.10;;;8.20;;
10529;SDS011;5313;48.834;9.228;2023-07-08T00:26:28;12.43;;;7.63;;
10529;SDS011;5313;48.834;9.228;2023-07-08T00:28:55;13.47;;;8.13;;
10529;SDS011;5313;48.834;9.228;2023-07-08T00:31:22;11.03;;;6.90;;
10529;SDS011;5313;48.834;9.228;2023-07-08T00:33:51;12.47;;;7.60;;
10529;SDS011;5313;48.834;9.228;2023-07-08T00:36:20;11.70;;;7.20;;
10529;SDS011;5313;48.834;9.228;2023-07-08T00:38:47;9.93;;;6.03;;
10529;SDS011;5313;48.834;9.228;2023-07-08T00:41:32;9.07;;;5.73;;
10529;SDS011;5313;48.834;9.228;2023-07-08T00:44:01;10.67;;;8.27;;
10529;SDS011;5313;48.834;9.228;2023-07-08T00:48:56;13.13;;;7.43;;
10529;SDS011;5313;48.834;9.228;2023-07-08T00:51:43;13.97;;;7.87;;
10529;SDS011;5313;48.834;9.228;2023-07-08T00:54:12;12.37;;;7.63;;
10529;SDS011;5313;48.834;9.228;2023-07-08T00:59:18;10.33;;;6.70;;
10529;SDS011;5313;48.834;9.228;2023-07-08T01:01:57;13.23;;;6.80;;
10529;SDS011;5313;48.834;9.228;2023-07-08T01:04:32;9.47;;;6.63;;
10529;SDS011;5313;48.834;9.228;2023-07-08T01:07:02;9.67;;;6.47;;
10529;SDS011;5313;48.834;9.228;2023-07-08T01:09:33;9.93;;;5.97;;
10529;SDS011;5313;48.834;9.228;2023-07-08T01:12:02;9.33;;;6.30;;
10529;SDS011;5313;48.834;9.228;2023-07-08T01:14:33;10.37;;;6.87;;
10529;SDS011;5313;48.834;9.228;2023-07-08T01:17:00;9.17;;;6.27;;
10529;SDS011;5313;48.834;9.228;2023-07-08T01:19:26;10.97;;;6.33;;
10529;SDS011;5313;48.834;9.228;2023-07-08T01:22:00;9.70;;;6.37;;
10529;SDS011;5313;48.834;9.228;2023-07-08T01:24:30;10.20;;;6.30;;
10529;SDS011;5313;48.834;9.228;2023-07-08T01:26:58;9.37;;;6.40;;
10529;SDS011;5313;48.834;9.228;2023-07-08T01:29:26;9.00;;;5.70;;
10529;SDS011;5313;48.834;9.228;2023-07-08T01:31:51;9.60;;;5.83;;
10529;SDS011;5313;48.834;9.228;2023-07-08T01:34:20;13.33;;;6.40;;
10529;SDS011;5313;48.834;9.228;2023-07-08T01:36:47;9.10;;;5.97;;
10529;SDS011;5313;48.834;9.228;2023-07-08T01:39:18;9.70;;;6.57;;
10529;SDS011;5313;48.834;9.228;2023-07-08T01:41:46;8.10;;;5.87;;
10529;SDS011;5313;48.834;9.228;2023-07-08T01:44:19;8.43;;;5.97;;
10529;SDS011;5313;48.834;9.228;2023-07-08T01:46:52;10.17;;;5.93;;
10529;SDS011;5313;48.834;9.228;2023-07-08T01:49:20;10.70;;;6.20;;
10529;SDS011;5313;48.834;9.228;2023-07-08T01:51:47;9.30;;;6.00;;
10529;SDS011;5313;48.834;9.228;2023-07-08T01:54:14;10.10;;;6.43;;
10529;SDS011;5313;48.834;9.228;2023-07-08T01:56:39;9.77;;;6.47;;
10529;SDS011;5313;48.834;9.228;2023-07-08T01:59:05;10.17;;;6.27;;
10529;SDS011;5313;48.834;9.228;2023-07-08T02:01:30;8.23;;;6.20;;
10529;SDS011;5313;48.834;9.228;2023-07-08T02:03:56;8.53;;;6.20;;
10529;SDS011;5313;48.834;9.228;2023-07-08T02:06:21;10.80;;;5.97;;
10529;SDS011;5313;48.834;9.228;2023-07-08T02:08:47;11.83;;;6.40;;
10529;SDS011;5313;48.834;9.228;2023-07-08T02:11:12;10.60;;;6.43;;
10529;SDS011;5313;48.834;9.228;2023-07-08T02:13:38;11.93;;;6.60;;
10529;SDS011;5313;48.834;9.228;2023-07-08T02:16:03;12.23;;;7.43;;
10529;SDS011;5313;48.834;9.228;2023-07-08T02:18:32;10.40;;;6.73;;
10529;SDS011;5313;48.834;9.228;2023-07-08T02:20:57;9.10;;;6.37;;
10529;SDS011;5313;48.834;9.228;2023-07-08T02:23:24;10.97;;;7.00;;
10529;SDS011;5313;48.834;9.228;2023-07-08T02:25:53;10.37;;;6.43;;
10529;SDS011;5313;48.834;9.228;2023-07-08T02:28:21;10.50;;;6.83;;
10529;SDS011;5313;48.834;9.228;2023-07-08T02:30:46;10.17;;;6.70;;
10529;SDS011;5313;48.834;9.228;2023-07-08T02:33:13;10.23;;;6.23;;
10529;SDS011;5313;48.834;9.228;2023-07-08T02:35:39;9.27;;;6.87;;
10529;SDS011;5313;48.834;9.228;2023-07-08T02:38:05;11.73;;;7.10;;
10529;SDS011;5313;48.834;9.228;2023-07-08T02:40:30;9.80;;;6.50;;
10529;SDS011;5313;48.834;9.228;2023-07-08T02:42:56;12.23;;;6.50;;
10529;SDS011;5313;48.834;9.228;2023-07-08T02:45:21;12.57;;;6.80;;
10529;SDS011;5313;48.834;9.228;2023-07-08T02:47:47;9.33;;;6.37;;
10529;SDS011;5313;48.834;9.228;2023-07-08T02:50:12;10.97;;;6.53;;
10529;SDS011;5313;48.834;9.228;2023-07-08T02:52:38;9.33;;;6.20;;
10529;SDS011;5313;48.834;9.228;2023-07-08T02:55:04;10.13;;;6.33;;
10529;SDS011;5313;48.834;9.228;2023-07-08T02:57:30;10.37;;;6.00;;
10529;SDS011;5313;48.834;9.228;2023-07-08T02:59:56;10.20;;;6.60;;
10529;SDS011;5313;48.834;9.228;2023-07-08T03:02:22;10.13;;;6.13;;
10529;SDS011;5313;48.834;9.228;2023-07-08T03:04:48;9.73;;;5.80;;
10529;SDS011;5313;48.834;9.228;2023-07-08T03:07:16;7.93;;;6.07;;
10529;SDS011;5313;48.834;9.228;2023-07-08T03:09:42;10.30;;;6.20;;
10529;SDS011;5313;48.834;9.228;2023-07-08T03:12:09;11.30;;;6.20;;
10529;SDS011;5313;48.834;9.228;2023-07-08T03:14:36;10.07;;;6.63;;
10529;SDS011;5313;48.834;9.228;2023-07-08T03:17:02;9.93;;;6.10;;
10529;SDS011;5313;48.834;9.228;2023-07-08T03:19:28;9.13;;;6.03;;
10529;SDS011;5313;48.834;9.228;2023-07-08T03:21:54;9.13;;;5.60;;
10529;SDS011;5313;48.834;9.228;2023-07-08T03:24:20;10.43;;;6.27;;
10529;SDS011;5313;48.834;9.228;2023-07-08T03:26:46;11.77;;;6.13;;
10529;SDS011;5313;48.834;9.228;2023-07-08T03:29:13;12.07;;;6.47;;
10529;SDS011;5313;48.834;9.228;2023-07-08T03:31:40;9.00;;;5.73;;
10529;SDS011;5313;48.834;9.228;2023-07-08T03:34:08;8.93;;;5.63;;
10529;SDS011;5313;48.834;9.228;2023-07-08T03:36:35;7.97;;;5.60;;
10529;SDS011;5313;48.834;9.228;2023-07-08T03:39:09;10.37;;;6.23;;
10529;SDS011;5313;48.834;9.228;2023-07-08T03:41:34;7.83;;;5.83;;
10529;SDS011;5313;48.834;9.228;2023-07-08T03:44:00;9.27;;;6.03;;
10529;SDS011;5313;48.834;9.228;2023-07-08T03:46:25;8.67;;;5.70;;
10529;SDS011;5313;48.834;9.228;2023-07-08T03:48:51;9.73;;;6.53;;
10529;SDS011;5313;48.834;9.228;2023-07-08T03:51:19;8.63;;;6.07;;
10529;SDS011;5313;48.834;9.228;2023-07-08T03:53:54;9.93;;;6.60;;
10529;SDS011;5313;48.834;9.228;2023-07-08T03:56:19;8.97;;;6.47;;
10529;SDS011;5313;48.834;9.228;2023-07-08T03:58:45;12.13;;;6.17;;
10529;SDS011;5313;48.834;9.228;2023-07-08T04:01:18;9.43;;;6.57;;
10529;SDS011;5313;48.834;9.228;2023-07-08T04:03:45;9.80;;;6.63;;
10529;SDS011;5313;48.834;9.228;2023-07-08T04:06:13;8.33;;;6.20;;
10529;SDS011;5313;48.834;9.228;2023-07-08T04:08:39;11.10;;;6.63;;
10529;SDS011;5313;48.834;9.228;2023-07-08T04:11:05;10.03;;;6.13;;
10529;SDS011;5313;48.834;9.228;2023-07-08T04:13:31;10.23;;;6.20;;
10529;SDS011;5313;48.834;9.228;2023-07-08T04:15:59;9.63;;;6.37;;
10529;SDS011;5313;48.834;9.228;2023-07-08T04:18:27;10.53;;;6.17;;
10529;SDS011;5313;48.834;9.228;2023-07-08T04:20:53;9.20;;;6.43;;
10529;SDS011;5313;48.834;9.228;2023-07-08T04:23:19;8.10;;;6.13;;
10529;SDS011;5313;48.834;9.228;2023-07-08T04:25:45;11.80;;;6.60;;
10529;SDS011;5313;48.834;9.228;2023-07-08T04:28:12;10.00;;;6.00;;
10529;SDS011;5313;48.834;9.228;2023-07-08T04:30:38;9.00;;;6.20;;
10529;SDS011;5313;48.834;9.228;2023-07-08T04:33:09;12.83;;;7.13;;
10529;SDS011;5313;48.834;9.228;2023-07-08T04:35:36;14.70;;;7.20;;
10529;SDS011;5313;48.834;9.228;2023-07-08T04:38:05;14.93;;;7.97;;
10529;SDS011;5313;48.834;9.228;2023-07-08T04:40:34;15.30;;;7.50;;
10529;SDS011;5313;48.834;9.228;2023-07-08T04:43:04;11.87;;;6.70;;
10529;SDS011;5313;48.834;9.228;2023-07-08T04:45:31;12.67;;;6.47;;
10529;SDS011;5313;48.834;9.228;2023-07-08T04:47:56;12.43;;;7.00;;
10529;SDS011;5313;48.834;9.228;2023-07-08T04:50:22;10.17;;;6.53;;
10529;SDS011;5313;48.834;9.228;2023-07-08T04:52:48;10.50;;;6.37;;
10529;SDS011;5313;48.834;9.228;2023-07-08T04:55:14;10.47;;;6.03;;
10529;SDS011;5313;48.834;9.228;2023-07-08T04:57:40;10.90;;;6.67;;
10529;SDS011;5313;48.834;9.228;2023-07-08T05:00:06;9.73;;;6.47;;
10529;SDS011;5313;48.834;9.228;2023-07-08T05:02:35;10.10;;;6.13;;
10529;SDS011;5313;48.834;9.228;2023-07-08T05:05:01;10.40;;;5.93;;
10529;SDS011;5313;48.834;9.228;2023-07-08T05:07:27;10.10;;;6.40;;
10529;SDS011;5313;48.834;9.228;2023-07-08T05:09:52;9.27;;;6.10;;
10529;SDS011;5313;48.834;9.228;2023-07-08T05:12:18;9.83;;;5.90;;
10529;SDS011;5313;48.834;9.228;2023-07-08T05:14:43;8.93;;;6.10;;
10529;SDS011;5313;48.834;9.228;2023-07-08T05:17:09;8.23;;;6.00;;
10529;SDS011;5313;48.834;9.228;2023-07-08T05:19:35;11.87;;;6.80;;
10529;SDS011;5313;48.834;9.228;2023-07-08T05:22:00;9.70;;;6.47;;
10529;SDS011;5313;48.834;9.228;2023-07-08T05:24:26;11.13;;;6.73;;
10529;SDS011;5313;48.834;9.228;2023-07-08T05:26:51;9.77;;;6.17;;
10529;SDS011;5313;48.834;9.228;2023-07-08T05:29:17;9.90;;;5.80;;
10529;SDS011;5313;48.834;9.228;2023-07-08T05:31:43;8.20;;;6.10;;
10529;SDS011;5313;48.834;9.228;2023-07-08T05:34:08;9.03;;;5.87;;
10529;SDS011;5313;48.834;9.228;2023-07-08T05:36:34;8.63;;;6.07;;
10529;SDS011;5313;48.834;9.228;2023-07-08T05:38:59;10.97;;;6.90;;
10529;SDS011;5313;48.834;9.228;2023-07-08T05:41:25;12.27;;;6.30;;
10529;SDS011;5313;48.834;9.228;2023-07-08T05:43:50;11.10;;;6.93;;
10529;SDS011;5313;48.834;9.228;2023-07-08T05:46:16;8.63;;;6.03;;
10529;SDS011;5313;48.834;9.228;2023-07-08T05:48:41;11.03;;;7.03;;
10529;SDS011;5313;48.834;9.228;2023-07-08T05:51:07;10.10;;;6.33;;
10529;SDS011;5313;48.834;9.228;2023-07-08T05:53:33;13.50;;;7.23;;
10529;SDS011;5313;48.834;9.228;2023-07-08T05:55:58;8.70;;;6.70;;
10529;SDS011;5313;48.834;9.228;2023-07-08T05:58:24;9.93;;;6.13;;
10529;SDS011;5313;48.834;9.228;2023-07-08T06:00:54;11.60;;;6.67;;
10529;SDS011;5313;48.834;9.228;2023-07-08T06:03:20;10.37;;;7.27;;
10529;SDS011;5313;48.834;9.228;2023-07-08T06:05:46;8.97;;;6.93;;
10529;SDS011;5313;48.834;9.228;2023-07-08T06:08:11;9.47;;;6.53;;
10529;SDS011;5313;48.834;9.228;2023-07-08T06:10:41;12.53;;;7.00;;
10529;SDS011;5313;48.834;9.228;2023-07-08T06:13:08;11.27;;;6.57;;
10529;SDS011;5313;48.834;9.228;2023-07-08T06:15:33;9.67;;;6.43;;
10529;SDS011;5313;48.834;9.228;2023-07-08T06:17:59;9.13;;;6.07;;
10529;SDS011;5313;48.834;9.228;2023-07-08T06:20:27;9.83;;;6.50;;
10529;SDS011;5313;48.834;9.228;2023-07-08T06:22:52;8.87;;;6.43;;
10529;SDS011;5313;48.834;9.228;2023-07-08T06:25:18;9.87;;;6.53;;
10529;SDS011;5313;48.834;9.228;2023-07-08T06:27:44;11.00;;;6.43;;
10529;SDS011;5313;48.834;9.228;2023-07-08T06:30:09;10.03;;;5.73;;
10529;SDS011;5313;48.834;9.228;2023-07-08T06:32:35;9.50;;;6.23;;
10529;SDS011;5313;48.834;9.228;2023-07-08T06:35:01;10.73;;;6.17;;
10529;SDS011;5313;48.834;9.228;2023-07-08T06:37:26;7.83;;;5.40;;
10529;SDS011;5313;48.834;9.228;2023-07-08T06:39:52;9.47;;;6.07;;
10529;SDS011;5313;48.834;9.228;2023-07-08T06:42:17;9.20;;;5.90;;
10529;SDS011;5313;48.834;9.228;2023-07-08T06:44:43;9.80;;;6.03;;
10529;SDS011;5313;48.834;9.228;2023-07-08T06:47:15;9.33;;;5.90;;
10529;SDS011;5313;48.834;9.228;2023-07-08T06:49:47;10.63;;;6.20;;
10529;SDS011;5313;48.834;9.228;2023-07-08T06:52:14;7.57;;;5.50;;
10529;SDS011;5313;48.834;9.228;2023-07-08T06:54:40;9.57;;;5.27;;
10529;SDS011;5313;48.834;9.228;2023-07-08T06:57:05;7.83;;;5.77;;
10529;SDS011;5313;48.834;9.228;2023-07-08T06:59:31;9.83;;;6.03;;
10529;SDS011;5313;48.834;9.228;2023-07-08T07:01:57;8.87;;;5.97;;
10529;SDS011;5313;48.834;9.228;2023-07-08T07:04:23;8.77;;;6.07;;
10529;SDS011;5313;48.834;9.228;2023-07-08T07:06:48;11.30;;;5.63;;
10529;SDS011;5313;48.834;9.228;2023-07-08T07:09:14;9.03;;;5.77;;
10529;SDS011;5313;48.834;9.228;2023-07-08T07:11:39;8.70;;;5.80;;
10529;SDS011;5313;48.834;9.228;2023-07-08T07:14:05;7.60;;;5.70;;
10529;SDS011;5313;48.834;9.228;2023-07-08T07:16:31;11.10;;;5.63;;
10529;SDS011;5313;48.834;9.228;2023-07-08T07:18:56;7.57;;;5.70;;
10529;SDS011;5313;48.834;9.228;2023-07-08T07:21:21;12.33;;;5.77;;
10529;SDS011;5313;48.834;9.228;2023-07-08T07:23:47;8.70;;;5.83;;
10529;SDS011;5313;48.834;9.228;2023-07-08T07:26:13;10.63;;;5.77;;
10529;SDS011;5313;48.834;9.228;2023-07-08T07:28:39;11.40;;;5.80;;
10529;SDS011;5313;48.834;9.228;2023-07-08T07:31:04;10.60;;;6.70;;
10529;SDS011;5313;48.834;9.228;2023-07-08T07:33:35;8.60;;;5.50;;
10529;SDS011;5313;48.834;9.228;2023-07-08T07:36:01;9.13;;;5.70;;
10529;SDS011;5313;48.834;9.228;2023-07-08T07:38:26;12.63;;;7.47;;
10529;SDS011;5313;48.834;9.228;2023-07-08T07:40:54;8.40;;;5.90;;
10529;SDS011;5313;48.834;9.228;2023-07-08T07:43:20;8.37;;;5.23;;
10529;SDS011;5313;48.834;9.228;2023-07-08T07:45:49;10.10;;;5.13;;
10529;SDS011;5313;48.834;9.228;2023-07-08T07:48:18;7.93;;;5.20;;
10529;SDS011;5313;48.834;9.228;2023-07-08T07:50:45;7.50;;;4.57;;
10529;SDS011;5313;48.834;9.228;2023-07-08T07:53:12;7.53;;;5.43;;
10529;SDS011;5313;48.834;9.228;2023-07-08T07:55:38;8.13;;;5.20;;
10529;SDS011;5313;48.834;9.228;2023-07-08T07:58:03;8.70;;;5.27;;
10529;SDS011;5313;48.834;9.228;2023-07-08T08:00:30;8.00;;;5.13;;
10529;SDS011;5313;48.834;9.228;2023-07-08T08:02:55;8.33;;;4.80;;
10529;SDS011;5313;48.834;9.228;2023-07-08T08:05:21;8.50;;;5.30;;
10529;SDS011;5313;48.834;9.228;2023-07-08T08:07:47;8.77;;;5.00;;
10529;SDS011;5313;48.834;9.228;2023-07-08T08:10:13;8.17;;;4.90;;
10529;SDS011;5313;48.834;9.228;2023-07-08T08:12:38;8.97;;;4.97;;
10529;SDS011;5313;48.834;9.228;2023-07-08T08:15:04;9.03;;;4.30;;
10529;SDS011;5313;48.834;9.228;2023-07-08T08:17:30;8.03;;;5.17;;
10529;SDS011;5313;48.834;9.228;2023-07-08T08:19:56;7.37;;;4.93;;
10529;SDS011;5313;48.834;9.228;2023-07-08T08:22:21;8.00;;;5.40;;
10529;SDS011;5313;48.834;9.228;2023-07-08T08:24:47;9.10;;;4.93;;
10529;SDS011;5313;48.834;9.228;2023-07-08T08:27:12;8.50;;;5.20;;
10529;SDS011;5313;48.834;9.228;2023-07-08T08:29:37;7.97;;;4.60;;
10529;SDS011;5313;48.834;9.228;2023-07-08T08:32:03;8.77;;;4.80;;
10529;SDS011;5313;48.834;9.228;2023-07-08T08:34:29;10.68;;;5.57;;
10529;SDS011;5313;48.834;9.228;2023-07-08T08:36:56;8.02;;;5.30;;
10529;SDS011;5313;48.834;9.228;2023-07-08T08:39:22;6.50;;;4.57;;
10529;SDS011;5313;48.834;9.228;2023-07-08T08:41:49;8.70;;;5.03;;
10529;SDS011;5313;48.834;9.228;2023-07-08T08:44:19;10.75;;;4.57;;
10529;SDS011;5313;48.834;9.228;2023-07-08T08:49:41;7.22;;;4.65;;
10529;SDS011;5313;48.834;9.228;2023-07-08T08:52:15;7.43;;;4.85;;
10529;SDS011;5313;48.834;9.228;2023-07-08T08:54:41;7.43;;;4.63;;
10529;SDS011;5313;48.834;9.228;2023-07-08T09:00:24;7.07;;;3.83;;
10529;SDS011;5313;48.834;9.228;2023-07-08T09:03:04;6.45;;;4.15;;
10529;SDS011;5313;48.834;9.228;2023-07-08T09:05:36;6.65;;;4.25;;
10529;SDS011;5313;48.834;9.228;2023-07-08T09:08:08;5.50;;;3.75;;
10529;SDS011;5313;48.834;9.228;2023-07-08T09:10:45;7.68;;;3.33;;
10529;SDS011;5313;48.834;9.228;2023-07-08T09:13:31;7.63;;;4.13;;
10529;SDS011;5313;48.834;9.228;2023-07-08T09:16:03;6.78;;;3.78;;
10529;SDS011;5313;48.834;9.228;2023-07-08T09:18:49;4.50;;;3.13;;
10529;SDS011;5313;48.834;9.228;2023-07-08T09:21:24;4.35;;;2.85;;
10529;SDS011;5313;48.834;9.228;2023-07-08T09:24:11;5.60;;;3.17;;
10529;SDS011;5313;48.834;9.228;2023-07-08T09:27:03;5.78;;;3.70;;
10529;SDS011;5313;48.834;9.228;2023-07-08T09:29:29;5.18;;;3.53;;
10529;SDS011;5313;48.834;9.228;2023-07-08T09:31:56;7.93;;;7.13;;
10529;SDS011;5313;48.834;9.228;2023-07-08T09:34:23;8.10;;;5.60;;
10529;SDS011;5313;48.834;9.228;2023-07-08T09:37:03;3.47;;;2.40;;
10529;SDS011;5313;48.834;9.228;2023-07-08T09:39:42;5.72;;;2.50;;
10529;SDS011;5313;48.834;9.228;2023-07-08T09:42:08;6.53;;;3.03;;
10529;SDS011;5313;48.834;9.228;2023-07-08T09:44:34;4.22;;;2.55;;
10529;SDS011;5313;48.834;9.228;2023-07-08T09:47:08;5.38;;;3.08;;
10529;SDS011;5313;48.834;9.228;2023-07-08T09:49:46;5.22;;;3.22;;
10529;SDS011;5313;48.834;9.228;2023-07-08T09:52:12;5.20;;;2.58;;
10529;SDS011;5313;48.834;9.228;2023-07-08T09:54:39;3.58;;;2.40;;
10529;SDS011;5313;48.834;9.228;2023-07-08T09:57:39;5.57;;;2.50;;
10529;SDS011;5313;48.834;9.228;2023-07-08T09:59:59;4.95;;;2.38;;
10529;SDS011;5313;48.834;9.228;2023-07-08T10:02:30;4.57;;;2.53;;
10529;SDS011;5313;48.834;9.228;2023-07-08T10:07:39;2.83;;;2.13;;
10529;SDS011;5313;48.834;9.228;2023-07-08T10:10:06;4.65;;;2.63;;
10529;SDS011;5313;48.834;9.228;2023-07-08T10:12:43;4.40;;;3.00;;
10529;SDS011;5313;48.834;9.228;2023-07-08T10:15:37;5.97;;;2.92;;
10529;SDS011;5313;48.834;9.228;2023-07-08T10:18:16;5.10;;;3.13;;
10529;SDS011;5313;48.834;9.228;2023-07-08T10:20:47;5.25;;;3.17;;
10529;SDS011;5313;48.834;9.228;2023-07-08T10:23:25;7.47;;;3.17;;
10529;SDS011;5313;48.834;9.228;2023-07-08T10:26:08;4.85;;;3.00;;
10529;SDS011;5313;48.834;9.228;2023-07-08T10:28:50;4.60;;;2.90;;
10529;SDS011;5313;48.834;9.228;2023-07-08T10:31:42;4.65;;;2.70;;
10529;SDS011;5313;48.834;9.228;2023-07-08T10:34:23;5.43;;;3.03;;
10529;SDS011;5313;48.834;9.228;2023-07-08T10:36:53;4.30;;;3.08;;
10529;SDS011;5313;48.834;9.228;2023-07-08T10:39:53;5.28;;;3.67;;
10529;SDS011;5313;48.834;9.228;2023-07-08T10:42:32;4.68;;;3.70;;
10529;SDS011;5313;48.834;9.228;2023-07-08T10:56:54;8.60;;;3.45;;
10529;SDS011;5313;48.834;9.228;2023-07-08T10:59:34;4.32;;;3.33;;
10529;SDS011;5313;48.834;9.228;2023-07-08T11:02:31;5.70;;;3.33;;
10529;SDS011;5313;48.834;9.228;2023-07-08T11:07:51;5.00;;;3.40;;
10529;SDS011;5313;48.834;9.228;2023-07-08T11:10:27;5.68;;;2.90;;
10529;SDS011;5313;48.834;9.228;2023-07-08T11:13:01;4.63;;;3.00;;
10529;SDS011;5313;48.834;9.228;2023-07-08T11:15:36;4.70;;;3.03;;
10529;SDS011;5313;48.834;9.228;2023-07-08T11:18:17;6.50;;;3.03;;
10529;SDS011;5313;48.834;9.228;2023-07-08T11:20:54;5.03;;;2.92;;
10529;SDS011;5313;48.834;9.228;2023-07-08T11:28:54;5.85;;;3.05;;
10529;SDS011;5313;48.834;9.228;2023-07-08T11:31:23;5.18;;;2.78;;
10529;SDS011;5313;48.834;9.228;2023-07-08T11:33:50;5.80;;;3.05;;
10529;SDS011;5313;48.834;9.228;2023-07-08T11:36:17;3.92;;;2.50;;
10529;SDS011;5313;48.834;9.228;2023-07-08T11:38:53;3.30;;;2.60;;
10529;SDS011;5313;48.834;9.228;2023-07-08T11:41:21;4.07;;;2.40;;
10529;SDS011;5313;48.834;9.228;2023-07-08T11:43:50;4.50;;;2.63;;
10529;SDS011;5313;48.834;9.228;2023-07-08T11:46:36;4.78;;;2.38;;
10529;SDS011;5313;48.834;9.228;2023-07-08T11:49:21;5.90;;;2.45;;
10529;SDS011;5313;48.834;9.228;2023-07-08T11:51:47;2.63;;;2.17;;
10529;SDS011;5313;48.834;9.228;2023-07-08T11:54:14;3.92;;;2.40;;
10529;SDS011;5313;48.834;9.228;2023-07-08T11:56:49;3.40;;;2.40;;
10529;SDS011;5313;48.834;9.228;2023-07-08T11:59:22;3.22;;;2.13;;
10529;SDS011;5313;48.834;9.228;2023-07-08T12:02:00;4.45;;;2.22;;
10529;SDS011;5313;48.834;9.228;2023-07-08T12:04:34;4.05;;;2.47;;
10529;SDS011;5313;48.834;9.228;2023-07-08T12:12:41;3.47;;;2.20;;
10529;SDS011;5313;48.834;9.228;2023-07-08T12:17:43;4.00;;;2.30;;
10529;SDS011;5313;48.834;9.228;2023-07-08T12:20:18;2.90;;;2.17;;
10529;SDS011;5313;48.834;9.228;2023-07-08T12:22:56;4.15;;;2.78;;
10529;SDS011;5313;48.834;9.228;2023-07-08T12:25:22;3.45;;;2.22;;
10529;SDS011;5313;48.834;9.228;2023-07-08T12:27:51;3.08;;;2.17;;
10529;SDS011;5313;48.834;9.228;2023-07-08T12:30:17;3.70;;;2.10;;
10529;SDS011;5313;48.834;9.228;2023-07-08T12:32:43;3.15;;;2.10;;
10529;SDS011;5313;48.834;9.228;2023-07-08T12:35:22;4.45;;;2.35;;
10529;SDS011;5313;48.834;9.228;2023-07-08T12:37:51;2.42;;;2.20;;
10529;SDS011;5313;48.834;9.228;2023-07-08T12:40:17;3.80;;;2.15;;
10529;SDS011;5313;48.834;9.228;2023-07-08T12:42:45;4.47;;;2.42;;
10529;SDS011;5313;48.834;9.228;2023-07-08T12:45:16;2.97;;;2.22;;
10529;SDS011;5313;48.834;9.228;2023-07-08T12:47:44;4.47;;;2.30;;
10529;SDS011;5313;48.834;9.228;2023-07-08T12:50:10;6.78;;;2.20;;
10529;SDS011;5313;48.834;9.228;2023-07-08T12:52:36;2.55;;;1.92;;
10529;SDS011;5313;48.834;9.228;2023-07-08T12:55:02;4.68;;;2.10;;
10529;SDS011;5313;48.834;9.228;2023-07-08T12:57:28;5.47;;;2.20;;
10529;SDS011;5313;48.834;9.228;2023-07-08T12:59:54;4.80;;;1.95;;
10529;SDS011;5313;48.834;9.228;2023-07-08T13:02:20;4.07;;;2.10;;
10529;SDS011;5313;48.834;9.228;2023-07-08T13:04:49;2.92;;;1.80;;
10529;SDS011;5313;48.834;9.228;2023-07-08T13:07:36;2.45;;;1.92;;
10529;SDS011;5313;48.834;9.228;2023-07-08T13:10:05;4.43;;;2.13;;
10529;SDS011;5313;48.834;9.228;2023-07-08T13:12:34;3.05;;;1.90;;
10529;SDS011;5313;48.834;9.228;2023-07-08T13:15:03;3.63;;;2.08;;
10529;SDS011;5313;48.834;9.228;2023-07-08T13:17:34;4.35;;;2.15;;
10529;SDS011;5313;48.834;9.228;2023-07-08T13:20:02;3.97;;;2.10;;
10529;SDS011;5313;48.834;9.228;2023-07-08T13:22:29;2.80;;;2.03;;
10529;SDS011;5313;48.834;9.228;2023-07-08T13:24:59;2.83;;;2.10;;
10529;SDS011;5313;48.834;9.228;2023-07-08T13:27:27;7.53;;;2.55;;
10529;SDS011;5313;48.834;9.228;2023-07-08T13:29:53;5.22;;;2.25;;
10529;SDS011;5313;48.834;9.228;2023-07-08T13:32:20;5.82;;;2.08;;
10529;SDS011;5313;48.834;9.228;2023-07-08T13:34:54;3.55;;;1.80;;
10529;SDS011;5313;48.834;9.228;2023-07-08T13:37:20;4.20;;;2.20;;
10529;SDS011;5313;48.834;9.228;2023-07-08T13:39:49;3.85;;;2.22;;
10529;SDS011;5313;48.834;9.228;2023-07-08T13:42:14;3.97;;;2.08;;
10529;SDS011;5313;48.834;9.228;2023-07-08T13:44:44;4.45;;;2.22;;
10529;SDS011;5313;48.834;9.228;2023-07-08T13:47:20;2.58;;;1.80;;
10529;SDS011;5313;48.834;9.228;2023-07-08T13:49:47;3.75;;;2.35;;
10529;SDS011;5313;48.834;9.228;2023-07-08T13:52:21;4.30;;;2.05;;
10529;SDS011;5313;48.834;9.228;2023-07-08T13:54:51;3.83;;;2.20;;
10529;SDS011;5313;48.834;9.228;2023-07-08T13:57:36;3.55;;;2.00;;
10529;SDS011;5313;48.834;9.228;2023-07-08T14:00:04;4.20;;;1.73;;
10529;SDS011;5313;48.834;9.228;2023-07-08T14:02:34;5.00;;;2.10;;
10529;SDS011;5313;48.834;9.228;2023-07-08T14:05:01;2.85;;;1.90;;
10529;SDS011;5313;48.834;9.228;2023-07-08T14:07:30;4.00;;;2.17;;
10529;SDS011;5313;48.834;9.228;2023-07-08T14:09:57;4.40;;;2.22;;
10529;SDS011;5313;48.834;9.228;2023-07-08T14:12:22;3.58;;;1.77;;
10529;SDS011;5313;48.834;9.228;2023-07-08T14:14:49;2.70;;;1.88;;
10529;SDS011;5313;48.834;9.228;2023-07-08T14:17:19;5.07;;;2.22;;
10529;SDS011;5313;48.834;9.228;2023-07-08T14:19:48;4.15;;;2.17;;
10529;SDS011;5313;48.834;9.228;2023-07-08T14:24:47;3.28;;;1.90;;
10529;SDS011;5313;48.834;9.228;2023-07-08T14:27:13;3.28;;;1.83;;
10529;SDS011;5313;48.834;9.228;2023-07-08T14:29:41;3.17;;;1.92;;
10529;SDS011;5313;48.834;9.228;2023-07-08T14:32:11;5.38;;;2.00;;
10529;SDS011;5313;48.834;9.228;2023-07-08T14:34:38;2.70;;;1.83;;
10529;SDS011;5313;48.834;9.228;2023-07-08T14:37:10;3.78;;;2.20;;
10529;SDS011;5313;48.834;9.228;2023-07-08T14:39:38;3.20;;;1.85;;
10529;SDS011;5313;48.834;9.228;2023-07-08T14:42:04;3.60;;;2.10;;
10529;SDS011;5313;48.834;9.228;2023-07-08T14:44:34;3.28;;;1.90;;
10529;SDS011;5313;48.834;9.228;2023-07-08T14:47:00;3.72;;;1.90;;
10529;SDS011;5313;48.834;9.228;2023-07-08T14:49:26;4.15;;;2.40;;
10529;SDS011;5313;48.834;9.228;2023-07-08T14:51:52;4.55;;;2.45;;
10529;SDS011;5313;48.834;9.228;2023-07-08T14:54:19;5.82;;;2.33;;
10529;SDS011;5313;48.834;9.228;2023-07-08T14:56:46;3.63;;;1.90;;
10529;SDS011;5313;48.834;9.228;2023-07-08T14:59:18;3.17;;;2.20;;
10529;SDS011;5313;48.834;9.228;2023-07-08T15:01:45;2.83;;;1.90;;
10529;SDS011;5313;48.834;9.228;2023-07-08T15:04:11;4.85;;;2.90;;
10529;SDS011;5313;48.834;9.228;2023-07-08T15:06:38;5.75;;;2.40;;
10529;SDS011;5313;48.834;9.228;2023-07-08T15:09:04;4.82;;;2.28;;
10529;SDS011;5313;48.834;9.228;2023-07-08T15:11:32;3.25;;;2.00;;
10529;SDS011;5313;48.834;9.228;2023-07-08T15:13:59;3.60;;;2.10;;
10529;SDS011;5313;48.834;9.228;2023-07-08T15:16:26;3.85;;;2.38;;
10529;SDS011;5313;48.834;9.228;2023-07-08T15:18:51;4.05;;;2.40;;
10529;SDS011;5313;48.834;9.228;2023-07-08T15:21:17;5.05;;;2.38;;
10529;SDS011;5313;48.834;9.228;2023-07-08T15:23:42;3.17;;;2.00;;
10529;SDS011;5313;48.834;9.228;2023-07-08T15:26:12;4.40;;;2.20;;
10529;SDS011;5313;48.834;9.228;2023-07-08T15:28:42;6.90;;;2.03;;
10529;SDS011;5313;48.834;9.228;2023-07-08T15:31:15;5.32;;;2.45;;
10529;SDS011;5313;48.834;9.228;2023-07-08T15:33:45;3.20;;;2.10;;
10529;SDS011;5313;48.834;9.228;2023-07-08T15:36:11;2.70;;;1.98;;
10529;SDS011;5313;48.834;9.228;2023-07-08T15:38:41;3.92;;;2.05;;
10529;SDS011;5313;48.834;9.228;2023-07-08T15:41:23;4.50;;;2.17;;
10529;SDS011;5313;48.834;9.228;2023-07-08T15:43:54;3.70;;;2.10;;
10529;SDS011;5313;48.834;9.228;2023-07-08T15:46:21;4.65;;;3.17;;
10529;SDS011;5313;48.834;9.228;2023-07-08T15:48:46;3.65;;;2.00;;
10529;SDS011;5313;48.834;9.228;2023-07-08T15:51:13;4.35;;;2.35;;
10529;SDS011;5313;48.834;9.228;2023-07-08T15:53:39;3.83;;;2.30;;